Time;durP1;ratioP1;P1;durP2;ratioP2;P2;SDS_P1;SDS_P2;PMS_P1;PMS_P2;Temp;Humidity;BMP_temperature;BMP_pressure;BME280_temperature;BME280_humidity;BME280_pressure;Samples;Min_cycle;Max_cycle;Signal;HPM_P1;HPM_P2
2023/06/15 00:00:58;;;;;;;;;;;19.90;53.90;;;;;;6093563;23;19977;-95
2023/06/15 00:03:25;;;;;;;;;;;19.90;53.90;;;;;;6093831;23;19909;-95
2023/06/15 00:06:06;;;;;;;;;;;19.90;54.00;;;;;;6070668;23;19941;-94
2023/06/15 00:08:32;;;;;;;;;;;19.80;53.90;;;;;;6094312;23;19905;-95
2023/06/15 00:11:04;;;;;;;;;;;19.90;53.90;;;;;;6093530;23;19905;-94
2023/06/15 00:13:30;;;;;;;;;;;19.90;54.00;;;;;;6070165;23;19916;-95
2023/06/15 00:15:56;;;;;;;;;;;19.90;54.00;;;;;;6093863;23;19911;-95
2023/06/15 00:18:32;;;;;;;;;;;19.90;53.90;;;;;;6094696;23;19937;-95
2023/06/15 00:20:57;;;;;;;;;;;19.90;54.00;;;;;;6093873;23;19905;-95
2023/06/15 00:23:32;;;;;;;;;;;19.90;54.00;;;;;;6095018;23;19960;-96
2023/06/15 00:25:58;;;;;;;;;;;19.80;53.90;;;;;;6094556;23;19906;-96
2023/06/15 00:31:27;;;;;;;;;;;19.80;54.60;;;;;;6095772;23;19913;-96
2023/06/15 00:34:20;;;;;;;;;;;19.80;53.80;;;;;;6071172;23;19960;-96
2023/06/15 00:36:52;;;;;;;;;;;20.30;54.10;;;;;;6094103;23;19909;-96
2023/06/15 00:39:18;;;;;;;;;;;19.80;54.00;;;;;;6070177;23;20243;-96
2023/06/15 00:41:56;;;;;;;;;;;19.80;53.90;;;;;;6094115;23;19905;-96
2023/06/15 00:44:41;;;;;;;;;;;19.90;54.10;;;;;;6094104;23;19909;-96
2023/06/15 00:47:09;;;;;;;;;;;19.80;54.00;;;;;;6093437;23;19920;-95
2023/06/15 00:49:44;;;;;;;;;;;19.80;54.10;;;;;;6071000;23;19937;-96
2023/06/15 00:52:14;;;;;;;;;;;19.80;54.10;;;;;;6094160;23;19909;-96
2023/06/15 00:54:40;;;;;;;;;;;19.90;54.10;;;;;;6094550;23;19906;-96
2023/06/15 00:57:10;;;;;;;;;;;19.80;54.00;;;;;;6094731;23;19905;-95
2023/06/15 00:59:45;;;;;;;;;;;19.80;54.10;;;;;;6095876;23;19961;-96
2023/06/15 01:02:14;;;;;;;;;;;20.10;54.20;;;;;;6095846;23;19905;-96
2023/06/15 01:04:40;;;;;;;;;;;19.80;54.10;;;;;;6096559;23;19932;-96
2023/06/15 01:07:27;;;;;;;;;;;19.70;54.10;;;;;;6096431;23;20327;-96
2023/06/15 01:10:04;;;;;;;;;;;19.80;54.10;;;;;;6097352;23;19912;-96
2023/06/15 01:12:40;;;;;;;;;;;19.70;54.10;;;;;;6073355;23;19909;-96
2023/06/15 01:15:07;;;;;;;;;;;19.70;54.00;;;;;;6071519;23;19910;-96
2023/06/15 01:20:48;;;;;;;;;;;20.10;54.30;;;;;;6068075;23;19910;-96
2023/06/15 01:23:32;;;;;;;;;;;19.70;54.10;;;;;;6095896;23;19917;-96
2023/06/15 01:26:11;;;;;;;;;;;19.70;54.10;;;;;;6096447;23;19905;-96
2023/06/15 01:28:45;;;;;;;;;;;19.70;54.10;;;;;;6075153;23;19914;-95
2023/06/15 01:31:30;;;;;;;;;;;19.70;54.10;;;;;;6073366;23;20057;-96
2023/06/15 01:33:57;;;;;;;;;;;19.70;54.10;;;;;;6095696;23;19945;-96
2023/06/15 01:36:33;;;;;;;;;;;19.70;54.10;;;;;;6072094;23;19916;-96
2023/06/15 01:39:12;;;;;;;;;;;19.60;54.10;;;;;;6073203;23;19922;-96
2023/06/15 01:41:57;;;;;;;;;;;19.70;54.20;;;;;;6074047;23;19906;-96
2023/06/15 01:44:23;;;;;;;;;;;19.60;54.20;;;;;;6073129;23;19988;-96
2023/06/15 01:46:49;;;;;;;;;;;19.60;54.20;;;;;;6069577;23;19933;-96
2023/06/15 01:49:21;;;;;;;;;;;19.60;54.20;;;;;;6073283;23;19905;-96
2023/06/15 01:51:50;;;;;;;;;;;19.60;54.30;;;;;;6073280;23;19906;-96
2023/06/15 01:54:54;;;;;;;;;;;19.60;54.20;;;;;;6071844;23;20268;-96
2023/06/15 01:57:20;;;;;;;;;;;19.60;54.30;;;;;;6029537;23;19916;-96
2023/06/15 01:59:49;;;;;;;;;;;19.60;54.30;;;;;;6071904;23;19933;-96
2023/06/15 02:02:30;;;;;;;;;;;19.70;54.40;;;;;;6071674;23;19912;-96
2023/06/15 02:04:56;;;;;;;;;;;19.60;54.40;;;;;;6070941;23;19909;-95
2023/06/15 02:07:21;;;;;;;;;;;19.60;54.40;;;;;;6071029;23;20239;-96
2023/06/15 02:09:59;;;;;;;;;;;19.60;54.40;;;;;;6070619;23;19913;-96
2023/06/15 02:12:28;;;;;;;;;;;19.60;54.40;;;;;;6069112;23;19910;-96
2023/06/15 02:15:09;;;;;;;;;;;19.60;54.40;;;;;;6070561;23;19952;-96
2023/06/15 02:17:44;;;;;;;;;;;19.60;54.40;;;;;;6047699;23;19909;-96
2023/06/15 02:20:11;;;;;;;;;;;19.60;54.50;;;;;;6071554;23;19909;-96
2023/06/15 02:22:52;;;;;;;;;;;19.50;54.50;;;;;;6047748;23;19918;-96
2023/06/15 02:25:21;;;;;;;;;;;19.50;54.50;;;;;;6070715;23;19967;-96
2023/06/15 02:28:02;;;;;;;;;;;19.60;54.60;;;;;;6069957;23;19992;-96
2023/06/15 02:30:49;;;;;;;;;;;20.00;54.80;;;;;;6070507;23;20247;-96
2023/06/15 02:36:01;;;;;;;;;;;19.50;54.60;;;;;;6096396;23;19916;-96
2023/06/15 02:38:27;;;;;;;;;;;19.50;54.60;;;;;;6070761;23;19906;-96
2023/06/15 02:40:56;;;;;;;;;;;19.50;54.60;;;;;;6092849;23;19909;-96
2023/06/15 02:43:25;;;;;;;;;;;19.50;54.60;;;;;;6099917;23;19912;-95
2023/06/15 02:45:59;;;;;;;;;;;19.50;54.70;;;;;;6076256;23;19917;-96
2023/06/15 02:48:26;;;;;;;;;;;19.40;54.60;;;;;;6100631;23;19905;-96
2023/06/15 02:50:52;;;;;;;;;;;19.50;54.70;;;;;;6099283;23;20391;-96
2023/06/15 02:53:33;;;;;;;;;;;19.50;54.60;;;;;;6100074;23;19937;-96
2023/06/15 02:56:11;;;;;;;;;;;19.50;54.70;;;;;;6076113;23;20326;-96
2023/06/15 02:58:37;;;;;;;;;;;19.50;54.70;;;;;;6099286;23;19955;-96
2023/06/15 03:01:12;;;;;;;;;;;19.50;54.70;;;;;;6099227;23;19909;-96
2023/06/15 03:03:42;;;;;;;;;;;19.50;54.70;;;;;;6075905;23;20311;-96
2023/06/15 03:06:09;;;;;;;;;;;19.40;54.80;;;;;;6076336;23;19909;-95
2023/06/15 03:08:50;;;;;;;;;;;19.50;54.80;;;;;;6099414;23;20310;-94
2023/06/15 03:11:16;;;;;;;;;;;19.40;54.70;;;;;;6077432;23;20235;-96
2023/06/15 03:13:55;;;;;;;;;;;19.50;54.90;;;;;;6100184;23;19984;-96
2023/06/15 03:16:27;;;;;;;;;;;19.40;54.90;;;;;;6100724;23;19912;-96
2023/06/15 03:18:53;;;;;;;;;;;19.40;54.80;;;;;;6101294;23;19905;-96
2023/06/15 03:21:22;;;;;;;;;;;19.40;54.90;;;;;;6076956;23;19915;-96
2023/06/15 03:24:10;;;;;;;;;;;19.50;55.00;;;;;;6099830;23;19920;-96
2023/06/15 03:26:38;;;;;;;;;;;19.40;55.00;;;;;;6124245;23;19925;-96
2023/06/15 03:29:08;;;;;;;;;;;19.40;55.00;;;;;;6093841;23;20279;-96
2023/06/15 03:31:40;;;;;;;;;;;19.40;55.00;;;;;;6099861;23;20327;-96
2023/06/15 03:34:18;;;;;;;;;;;19.40;55.00;;;;;;6100739;23;19909;-96
2023/06/15 03:36:59;;;;;;;;;;;19.30;55.00;;;;;;6103670;23;19940;-95
2023/06/15 03:39:28;;;;;;;;;;;19.40;55.10;;;;;;6100457;23;19905;-95
2023/06/15 03:41:53;;;;;;;;;;;20.00;55.40;;;;;;6100571;23;19905;-96
2023/06/15 03:44:20;;;;;;;;;;;19.40;55.10;;;;;;6101076;23;20040;-96
2023/06/15 03:46:46;;;;;;;;;;;19.40;55.10;;;;;;6102481;23;19905;-92
2023/06/15 03:49:50;;;;;;;;;;;19.40;55.20;;;;;;6108545;23;20080;-96
2023/06/15 03:52:24;;;;;;;;;;;19.40;55.20;;;;;;6102980;23;19905;-96
2023/06/15 03:54:50;;;;;;;;;;;19.40;55.30;;;;;;6099630;23;19909;-96
2023/06/15 03:57:24;;;;;;;;;;;19.40;55.40;;;;;;6099303;23;19915;-96
2023/06/15 03:59:52;;;;;;;;;;;19.30;55.30;;;;;;6094912;23;19920;-96
2023/06/15 04:02:54;;;;;;;;;;;19.30;55.50;;;;;;6100311;23;19905;-96
2023/06/15 04:05:35;;;;;;;;;;;19.40;55.60;;;;;;6116643;23;20370;-96
2023/06/15 04:08:14;;;;;;;;;;;19.30;55.50;;;;;;6099182;23;20335;-96
2023/06/15 04:10:59;;;;;;;;;;;19.30;55.60;;;;;;6076524;23;19913;-96
2023/06/15 04:13:44;;;;;;;;;;;19.40;55.70;;;;;;6099761;23;19909;-96
2023/06/15 04:16:15;;;;;;;;;;;19.30;55.70;;;;;;6100890;23;19909;-96
2023/06/15 04:18:44;;;;;;;;;;;19.30;55.70;;;;;;6098658;23;19992;-96
2023/06/15 04:21:29;;;;;;;;;;;19.30;55.80;;;;;;6099745;23;20224;-96
2023/06/15 04:24:01;;;;;;;;;;;19.30;55.80;;;;;;6067685;23;20000;-96
2023/06/15 04:26:27;;;;;;;;;;;19.20;55.90;;;;;;6098866;23;19909;-96
2023/06/15 04:29:18;;;;;;;;;;;19.30;55.90;;;;;;6100222;23;19931;-96
2023/06/15 04:31:54;;;;;;;;;;;19.20;56.00;;;;;;6080208;23;19952;-96
2023/06/15 04:34:22;;;;;;;;;;;19.30;56.10;;;;;;6101146;23;20116;-96
2023/06/15 04:36:51;;;;;;;;;;;19.30;56.20;;;;;;6102109;23;19909;-96
2023/06/15 04:39:37;;;;;;;;;;;19.30;56.20;;;;;;6103609;23;19905;-96
2023/06/15 04:42:50;;;;;;;;;;;19.40;56.20;;;;;;6128717;23;19905;-96
2023/06/15 04:45:51;;;;;;;;;;;19.30;56.30;;;;;;5960016;24;19915;-96
2023/06/15 04:48:27;;;;;;;;;;;19.30;56.50;;;;;;5901237;24;19915;-96
2023/06/15 04:51:14;;;;;;;;;;;19.30;57.10;;;;;;5879151;24;19974;-96
2023/06/15 04:53:43;;;;;;;;;;;19.40;56.70;;;;;;5880987;24;19915;-96
2023/06/15 04:56:34;;;;;;;;;;;19.30;56.70;;;;;;5880619;24;20578;-96
2023/06/15 05:02:25;;;;;;;;;;;19.30;56.80;;;;;;5872579;24;19978;-96
2023/06/15 05:05:15;;;;;;;;;;;19.30;56.80;;;;;;5856025;24;19969;-96
2023/06/15 05:08:08;;;;;;;;;;;19.30;56.90;;;;;;5821117;24;19908;-96
2023/06/15 05:13:40;;;;;;;;;;;19.30;57.00;;;;;;5807649;24;20266;-96
2023/06/15 05:16:12;;;;;;;;;;;19.40;57.10;;;;;;5711003;25;19964;-96
2023/06/15 05:18:45;;;;;;;;;;;19.40;57.20;;;;;;5723348;25;19921;-96
2023/06/15 05:21:12;;;;;;;;;;;19.40;57.30;;;;;;5745591;25;19916;-96
2023/06/15 05:23:52;;;;;;;;;;;19.40;57.30;;;;;;5744963;25;19975;-96
2023/06/15 05:26:37;;;;;;;;;;;19.40;57.30;;;;;;5741750;25;19913;-96
2023/06/15 05:29:09;;;;;;;;;;;19.40;57.50;;;;;;5740141;25;19995;-96
2023/06/15 05:31:47;;;;;;;;;;;19.40;57.50;;;;;;5741266;25;19988;-95
2023/06/15 05:34:25;;;;;;;;;;;19.40;57.50;;;;;;5741050;25;19952;-96
2023/06/15 05:36:57;;;;;;;;;;;19.50;57.60;;;;;;5738657;25;19980;-96
2023/06/15 05:39:37;;;;;;;;;;;19.50;57.50;;;;;;5802713;24;20363;-96
2023/06/15 05:42:11;;;;;;;;;;;19.50;57.60;;;;;;5796397;24;19915;-95
2023/06/15 05:44:44;;;;;;;;;;;19.50;57.60;;;;;;5859791;24;19923;-96
2023/06/15 05:47:13;;;;;;;;;;;19.50;57.50;;;;;;5929786;24;19943;-96
2023/06/15 05:49:42;;;;;;;;;;;19.50;57.60;;;;;;5929183;24;19906;-96
2023/06/15 05:52:20;;;;;;;;;;;19.50;57.50;;;;;;5938996;23;19985;-96
2023/06/15 05:55:01;;;;;;;;;;;19.60;57.50;;;;;;6100437;23;19988;-96
2023/06/15 05:57:47;;;;;;;;;;;19.60;57.50;;;;;;6104197;23;19905;-95
2023/06/15 06:00:31;;;;;;;;;;;19.60;57.50;;;;;;6101359;23;19981;-96
2023/06/15 06:03:08;;;;;;;;;;;19.60;57.60;;;;;;6120308;23;19925;-96
2023/06/15 06:05:34;;;;;;;;;;;19.60;57.70;;;;;;6105138;23;19905;-96
2023/06/15 06:08:14;;;;;;;;;;;20.10;58.00;;;;;;6069321;23;19996;-96
2023/06/15 06:10:52;;;;;;;;;;;19.70;57.70;;;;;;6042640;23;19919;-96
2023/06/15 06:16:14;;;;;;;;;;;19.70;57.70;;;;;;6069237;23;19953;-96
2023/06/15 06:18:47;;;;;;;;;;;19.80;57.80;;;;;;6049827;23;19910;-96
2023/06/15 06:21:22;;;;;;;;;;;19.70;57.70;;;;;;6042338;23;19961;-96
2023/06/15 06:24:02;;;;;;;;;;;;;;;;;;;;;
2023/06/15 06:26:43;;;;;;;;;;;;;;;;;;;;;
2023/06/15 06:30:00;;;;;;;;;;;;;;;;;;;;;
2023/06/15 06:32:47;;;;;;;;;;;19.90;58.00;;;;;;5932509;24;19931;-96
2023/06/15 06:35:15;;;;;;;;;;;19.90;58.00;;;;;;6043747;23;19914;-96
2023/06/15 06:41:14;;;;;;;;;;;20.30;58.40;;;;;;6070026;23;19909;-96
2023/06/15 06:43:47;;;;;;;;;;;20.00;58.20;;;;;;6049622;23;19913;-96
2023/06/15 06:46:16;;;;;;;;;;;20.00;58.10;;;;;;6072554;23;19917;-96
2023/06/15 06:48:41;;;;;;;;;;;20.00;58.10;;;;;;6101934;23;19913;-86
2023/06/15 06:51:07;;;;;;;;;;;20.40;58.20;;;;;;6096786;23;19960;-86
2023/06/15 06:53:33;;;;;;;;;;;20.10;58.00;;;;;;6073245;23;19916;-87
2023/06/15 06:55:58;;;;;;;;;;;20.10;57.60;;;;;;6073440;23;19909;-86
2023/06/15 06:58:27;;;;;;;;;;;20.10;57.70;;;;;;6096554;23;19916;-87
2023/06/15 07:00:53;;;;;;;;;;;20.30;57.70;;;;;;6097132;23;19909;-85
2023/06/15 07:03:19;;;;;;;;;;;20.20;57.60;;;;;;6093950;23;20351;-86
2023/06/15 07:05:46;;;;;;;;;;;20.20;57.50;;;;;;6071586;23;20223;-86
2023/06/15 07:08:26;;;;;;;;;;;20.20;57.40;;;;;;6097035;23;19912;-86
2023/06/15 07:10:52;;;;;;;;;;;20.30;57.40;;;;;;6097267;23;19943;-86
2023/06/15 07:13:18;;;;;;;;;;;20.20;57.20;;;;;;6096110;23;19909;-85
2023/06/15 07:15:43;;;;;;;;;;;20.30;57.30;;;;;;6072253;23;19996;-86
2023/06/15 07:18:13;;;;;;;;;;;20.30;57.30;;;;;;6072822;23;20381;-85
2023/06/15 07:20:39;;;;;;;;;;;20.40;57.50;;;;;;6073715;23;20007;-86
2023/06/15 07:23:05;;;;;;;;;;;20.40;57.30;;;;;;6096887;23;20324;-86
2023/06/15 07:25:30;;;;;;;;;;;20.40;57.20;;;;;;6072354;23;19933;-85
2023/06/15 07:27:56;;;;;;;;;;;20.50;57.20;;;;;;6096392;23;19909;-86
2023/06/15 07:30:41;;;;;;;;;;;20.50;57.10;;;;;;6096217;23;19905;-87
2023/06/15 07:33:16;;;;;;;;;;;20.50;57.10;;;;;;6096736;23;19984;-86
2023/06/15 07:35:42;;;;;;;;;;;20.60;57.10;;;;;;6072462;23;19960;-86
2023/06/15 07:38:08;;;;;;;;;;;20.60;57.10;;;;;;6096038;23;19909;-85
2023/06/15 07:40:33;;;;;;;;;;;20.70;57.20;;;;;;6096874;23;19905;-86
2023/06/15 07:42:59;;;;;;;;;;;20.70;57.10;;;;;;6096464;23;19916;-86
2023/06/15 07:45:24;;;;;;;;;;;20.70;56.90;;;;;;6097068;23;19909;-86
2023/06/15 07:48:10;;;;;;;;;;;20.80;56.80;;;;;;6095966;23;20327;-85
2023/06/15 07:50:35;;;;;;;;;;;20.80;56.80;;;;;;6094860;23;19905;-86
2023/06/15 07:53:01;;;;;;;;;;;20.80;56.90;;;;;;6067195;23;19913;-87
2023/06/15 07:55:26;;;;;;;;;;;20.90;57.10;;;;;;6091382;23;19913;-86
2023/06/15 07:57:52;;;;;;;;;;;20.90;57.00;;;;;;6094431;23;19988;-85
2023/06/15 08:00:37;;;;;;;;;;;21.00;57.20;;;;;;6097099;23;19905;-85
2023/06/15 08:03:23;;;;;;;;;;;21.00;57.00;;;;;;6121894;23;19909;-86
2023/06/15 08:05:48;;;;;;;;;;;21.00;56.90;;;;;;6096201;23;20259;-86
2023/06/15 08:08:14;;;;;;;;;;;21.00;56.70;;;;;;6073286;23;19909;-86
2023/06/15 08:10:39;;;;;;;;;;;21.10;57.00;;;;;;6124139;23;19913;-86
2023/06/15 08:13:06;;;;;;;;;;;21.10;56.90;;;;;;6074288;23;19917;-86
2023/06/15 08:15:52;;;;;;;;;;;21.10;57.10;;;;;;6098983;23;19984;-85
2023/06/15 08:18:18;;;;;;;;;;;21.20;57.00;;;;;;6124731;23;19981;-86
2023/06/15 08:20:43;;;;;;;;;;;21.20;57.00;;;;;;6075044;23;19964;-86
2023/06/15 08:23:10;;;;;;;;;;;21.20;57.10;;;;;;6075444;23;19909;-86
2023/06/15 08:25:35;;;;;;;;;;;21.20;57.10;;;;;;6076214;23;19909;-87
2023/06/15 08:28:01;;;;;;;;;;;21.30;56.80;;;;;;6099623;23;19944;-85
2023/06/15 08:30:27;;;;;;;;;;;21.30;56.80;;;;;;6098758;23;19909;-87
2023/06/15 08:32:52;;;;;;;;;;;21.30;56.50;;;;;;6098600;23;19912;-88
2023/06/15 08:35:18;;;;;;;;;;;21.40;57.00;;;;;;6074388;23;19912;-86
2023/06/15 08:37:43;;;;;;;;;;;21.40;56.20;;;;;;6097534;23;20271;-87
2023/06/15 08:40:29;;;;;;;;;;;21.40;56.40;;;;;;6098171;23;20228;-87
2023/06/15 08:42:56;;;;;;;;;;;21.40;56.10;;;;;;6124242;23;19908;-86
2023/06/15 08:45:42;;;;;;;;;;;21.50;56.00;;;;;;6073682;23;19913;-85
2023/06/15 08:48:18;;;;;;;;;;;21.40;56.10;;;;;;6097730;23;19912;-85
2023/06/15 08:51:03;;;;;;;;;;;21.90;56.30;;;;;;6073788;23;19988;-86
2023/06/15 08:53:30;;;;;;;;;;;21.50;55.80;;;;;;6098022;23;20319;-85
2023/06/15 08:55:55;;;;;;;;;;;21.60;55.80;;;;;;6073573;23;20326;-86
2023/06/15 08:58:21;;;;;;;;;;;21.60;55.60;;;;;;6073852;23;19909;-84
2023/06/15 09:01:06;;;;;;;;;;;21.60;55.50;;;;;;6097699;23;19905;-86
2023/06/15 09:03:55;;;;;;;;;;;21.60;55.70;;;;;;6097937;23;19913;-85
2023/06/15 09:06:21;;;;;;;;;;;21.70;55.70;;;;;;6123603;23;19909;-84
2023/06/15 09:08:48;;;;;;;;;;;21.70;55.70;;;;;;6073474;23;20003;-85
2023/06/15 09:11:33;;;;;;;;;;;21.70;55.50;;;;;;6073610;23;19916;-84
2023/06/15 09:13:59;;;;;;;;;;;21.80;55.50;;;;;;6098085;23;20338;-86
2023/06/15 09:16:24;;;;;;;;;;;21.80;55.80;;;;;;6123225;23;19928;-85
2023/06/15 09:19:16;;;;;;;;;;;21.80;55.10;;;;;;6072315;23;19909;-85
2023/06/15 09:21:50;;;;;;;;;;;21.80;55.10;;;;;;6096357;23;19956;-85
2023/06/15 09:24:16;;;;;;;;;;;21.80;54.90;;;;;;6074422;23;19913;-85
2023/06/15 09:26:43;;;;;;;;;;;21.90;54.80;;;;;;6073005;23;19924;-85
2023/06/15 09:29:11;;;;;;;;;;;21.90;54.80;;;;;;6121879;23;19959;-86
2023/06/15 09:31:56;;;;;;;;;;;21.90;55.00;;;;;;6071919;23;19951;-85
2023/06/15 09:34:42;;;;;;;;;;;21.90;54.50;;;;;;6095982;23;19945;-85
2023/06/15 09:37:15;;;;;;;;;;;21.90;54.50;;;;;;6095733;23;19920;-85
2023/06/15 09:40:00;;;;;;;;;;;21.90;54.60;;;;;;6095688;23;20169;-85
2023/06/15 09:42:46;;;;;;;;;;;22.00;54.60;;;;;;6095009;23;20319;-85
2023/06/15 09:45:11;;;;;;;;;;;22.00;53.70;;;;;;6094448;23;19944;-86
2023/06/15 09:47:37;;;;;;;;;;;22.00;53.40;;;;;;6070773;23;19924;-86
2023/06/15 09:50:07;;;;;;;;;;;22.00;53.30;;;;;;6094025;23;19936;-85
2023/06/15 09:52:36;;;;;;;;;;;22.00;53.30;;;;;;6072208;23;19909;-86
2023/06/15 09:55:27;;;;;;;;;;;22.00;53.10;;;;;;6072816;23;20259;-90
2023/06/15 09:57:53;;;;;;;;;;;22.00;53.60;;;;;;6097415;23;19936;-95
2023/06/15 10:00:19;;;;;;;;;;;22.00;53.30;;;;;;6096336;23;19920;-87
2023/06/15 10:03:08;;;;;;;;;;;22.00;53.00;;;;;;6073465;23;19916;-85
2023/06/15 10:05:54;;;;;;;;;;;22.10;52.70;;;;;;6097516;23;19968;-87
2023/06/15 10:08:24;;;;;;;;;;;22.10;52.60;;;;;;6096844;23;20212;-88
2023/06/15 10:10:51;;;;;;;;;;;22.00;51.60;;;;;;6072830;23;19963;-87
2023/06/15 10:13:22;;;;;;;;;;;22.10;52.50;;;;;;6072159;23;19920;-85
2023/06/15 10:16:08;;;;;;;;;;;22.00;52.80;;;;;;6072469;23;20354;-86
2023/06/15 10:18:53;;;;;;;;;;;22.10;52.00;;;;;;6095799;23;19905;-85
2023/06/15 10:21:39;;;;;;;;;;;22.00;51.50;;;;;;6094224;23;19955;-86
2023/06/15 10:24:09;;;;;;;;;;;22.10;52.50;;;;;;6096577;23;20628;-86
2023/06/15 10:26:38;;;;;;;;;;;22.00;52.50;;;;;;6071738;23;20548;-85
2023/06/15 10:29:08;;;;;;;;;;;22.00;52.50;;;;;;6072547;23;19909;-85
2023/06/15 10:32:00;;;;;;;;;;;22.00;52.50;;;;;;6070593;23;19909;-86
2023/06/15 10:34:34;;;;;;;;;;;22.00;52.30;;;;;;6120748;23;19905;-85
2023/06/15 10:37:18;;;;;;;;;;;21.90;51.90;;;;;;6071470;23;19944;-85
2023/06/15 10:39:45;;;;;;;;;;;21.90;51.90;;;;;;6095322;23;19911;-85
2023/06/15 10:42:14;;;;;;;;;;;21.90;51.70;;;;;;6069720;23;20330;-85
2023/06/15 10:44:40;;;;;;;;;;;21.80;51.50;;;;;;6096046;23;19924;-85
2023/06/15 10:47:08;;;;;;;;;;;21.80;51.60;;;;;;6071619;23;19936;-86
2023/06/15 10:49:34;;;;;;;;;;;21.70;51.50;;;;;;6096003;23;19984;-85
2023/06/15 10:52:20;;;;;;;;;;;21.80;51.60;;;;;;6096625;23;19933;-85
2023/06/15 10:54:48;;;;;;;;;;;21.70;51.80;;;;;;6097543;23;20287;-85
2023/06/15 10:57:34;;;;;;;;;;;21.70;52.00;;;;;;6073734;23;19916;-85
2023/06/15 10:59:59;;;;;;;;;;;21.60;51.90;;;;;;6093082;23;19916;-85
2023/06/15 11:02:28;;;;;;;;;;;21.60;51.80;;;;;;6095392;23;19913;-85
2023/06/15 11:05:04;;;;;;;;;;;21.60;51.70;;;;;;6123758;23;19916;-85
2023/06/15 11:07:48;;;;;;;;;;;21.50;51.70;;;;;;6095641;23;19916;-85
2023/06/15 11:10:15;;;;;;;;;;;21.50;51.60;;;;;;6096229;23;19909;-85
2023/06/15 11:13:00;;;;;;;;;;;21.50;51.60;;;;;;6121405;23;20390;-85
2023/06/15 11:15:30;;;;;;;;;;;21.40;51.70;;;;;;6097344;23;19928;-85
2023/06/15 11:18:06;;;;;;;;;;;21.50;51.70;;;;;;6097115;23;19912;-87
2023/06/15 11:20:38;;;;;;;;;;;21.40;51.70;;;;;;6073851;23;20370;-86
2023/06/15 11:23:13;;;;;;;;;;;21.40;51.60;;;;;;6096846;23;19905;-86
2023/06/15 11:26:01;;;;;;;;;;;21.40;51.70;;;;;;6098194;23;19905;-86
2023/06/15 11:28:30;;;;;;;;;;;21.40;51.50;;;;;;6096386;23;19984;-85
2023/06/15 11:31:00;;;;;;;;;;;21.40;51.60;;;;;;6074658;23;20394;-85
2023/06/15 11:33:30;;;;;;;;;;;21.30;51.70;;;;;;6098590;23;19920;-85
2023/06/15 11:35:59;;;;;;;;;;;21.40;52.00;;;;;;6098706;23;19916;-85
2023/06/15 11:38:44;;;;;;;;;;;21.40;52.00;;;;;;6073242;23;19956;-85
2023/06/15 11:41:12;;;;;;;;;;;21.40;52.10;;;;;;6096338;23;19909;-85
2023/06/15 11:43:38;;;;;;;;;;;21.40;52.70;;;;;;6073781;23;19917;-86
2023/06/15 11:46:05;;;;;;;;;;;21.40;52.50;;;;;;6099713;23;19912;-85
2023/06/15 11:48:50;;;;;;;;;;;21.40;52.60;;;;;;6097707;23;19917;-85
2023/06/15 11:51:18;;;;;;;;;;;21.40;53.30;;;;;;6097363;23;19905;-85
2023/06/15 11:53:45;;;;;;;;;;;21.40;52.90;;;;;;6073131;23;19909;-85
2023/06/15 11:56:31;;;;;;;;;;;21.30;53.00;;;;;;6073366;23;20322;-85
2023/06/15 11:58:57;;;;;;;;;;;21.30;53.00;;;;;;6094474;23;19972;-86
2023/06/15 12:01:26;;;;;;;;;;;21.30;52.80;;;;;;6120290;23;19964;-86
2023/06/15 12:03:53;;;;;;;;;;;21.30;53.60;;;;;;6072079;23;19920;-86
2023/06/15 12:06:28;;;;;;;;;;;21.30;53.30;;;;;;6096333;23;19913;-86
2023/06/15 12:08:56;;;;;;;;;;;21.30;53.00;;;;;;6074536;23;19909;-85
2023/06/15 12:11:27;;;;;;;;;;;21.30;52.50;;;;;;6073400;23;20320;-85
2023/06/15 12:13:58;;;;;;;;;;;21.30;52.40;;;;;;6097174;23;19912;-87
2023/06/15 12:16:44;;;;;;;;;;;21.30;52.30;;;;;;6072809;23;19913;-85
2023/06/15 12:19:30;;;;;;;;;;;21.30;51.90;;;;;;6096957;23;19927;-87
2023/06/15 12:22:02;;;;;;;;;;;21.30;51.80;;;;;;6097424;23;20031;-87
2023/06/15 12:24:27;;;;;;;;;;;21.30;53.00;;;;;;6073533;23;19948;-85
2023/06/15 12:26:57;;;;;;;;;;;21.30;52.40;;;;;;6073293;23;19908;-85
2023/06/15 12:29:51;;;;;;;;;;;21.20;52.40;;;;;;6097312;23;19913;-85
2023/06/15 12:32:24;;;;;;;;;;;21.20;52.50;;;;;;6096174;23;19905;-85
2023/06/15 12:35:10;;;;;;;;;;;21.20;52.20;;;;;;6094721;23;20662;-87
2023/06/15 12:37:38;;;;;;;;;;;21.20;52.10;;;;;;6096224;23;19905;-87
2023/06/15 12:40:24;;;;;;;;;;;21.20;51.90;;;;;;6073026;23;19916;-86
2023/06/15 12:43:02;;;;;;;;;;;21.20;51.80;;;;;;6096372;23;19991;-86
2023/06/15 12:45:28;;;;;;;;;;;21.30;51.60;;;;;;6072054;23;19913;-85
2023/06/15 12:48:13;;;;;;;;;;;21.20;52.50;;;;;;6072350;23;19924;-86
2023/06/15 12:50:39;;;;;;;;;;;21.30;52.00;;;;;;6095607;23;19939;-86
2023/06/15 12:53:05;;;;;;;;;;;21.20;53.10;;;;;;6121848;23;19905;-86
2023/06/15 12:55:50;;;;;;;;;;;21.20;52.50;;;;;;6073759;23;19920;-86
2023/06/15 12:58:25;;;;;;;;;;;21.20;52.50;;;;;;6097647;23;20275;-86
2023/06/15 13:00:50;;;;;;;;;;;21.20;52.50;;;;;;6095976;23;20166;-84
2023/06/15 13:03:16;;;;;;;;;;;21.20;52.30;;;;;;6122747;23;19905;-86
2023/06/15 13:09:21;;;;;;;;;;;21.10;52.30;;;;;;6125240;23;19995;-95
2023/06/15 13:12:02;;;;;;;;;;;21.20;52.50;;;;;;6099314;23;19911;-93
2023/06/15 13:14:40;;;;;;;;;;;21.10;52.70;;;;;;6100062;23;19905;-93
2023/06/15 13:20:20;;;;;;;;;;;21.20;52.50;;;;;;6125523;23;19952;-91
2023/06/15 13:23:07;;;;;;;;;;;21.10;52.50;;;;;;6077222;23;19912;-93
2023/06/15 13:25:48;;;;;;;;;;;21.50;52.70;;;;;;6098126;23;20307;-96
2023/06/15 13:38:02;;;;;;;;;;;;;;;;;;;;;
2023/06/15 13:40:35;;;;;;;;;;;21.10;52.10;;;;;;6007333;23;19913;-92
2023/06/15 13:46:23;;;;;;;;;;;21.10;51.90;;;;;;6007897;23;19910;-89
2023/06/15 13:48:49;;;;;;;;;;;21.00;51.60;;;;;;5982916;23;19922;-89
2023/06/15 13:51:14;;;;;;;;;;;21.00;51.90;;;;;;5982080;23;19907;-90
2023/06/15 13:53:40;;;;;;;;;;;21.00;52.40;;;;;;5958055;23;19914;-90
2023/06/15 13:56:05;;;;;;;;;;;21.00;51.80;;;;;;5958748;23;20437;-90
2023/06/15 13:58:31;;;;;;;;;;;21.00;51.80;;;;;;5959671;23;20047;-91
2023/06/15 14:00:57;;;;;;;;;;;21.00;51.70;;;;;;5983490;23;19913;-88
2023/06/15 14:03:23;;;;;;;;;;;21.00;51.50;;;;;;5959765;23;19974;-90
2023/06/15 14:06:11;;;;;;;;;;;21.10;51.60;;;;;;5984322;23;20269;-90
2023/06/15 14:08:43;;;;;;;;;;;21.00;51.60;;;;;;6041631;23;19905;-94
2023/06/15 14:11:09;;;;;;;;;;;21.10;51.50;;;;;;6099732;23;20349;-89
2023/06/15 14:13:34;;;;;;;;;;;21.10;51.40;;;;;;6075308;23;19952;-90
2023/06/15 14:16:00;;;;;;;;;;;21.10;52.00;;;;;;6074266;23;19999;-91
2023/06/15 14:18:31;;;;;;;;;;;21.10;51.80;;;;;;6100050;23;19931;-92
2023/06/15 14:21:00;;;;;;;;;;;21.10;51.60;;;;;;6125006;23;19921;-92
2023/06/15 14:23:46;;;;;;;;;;;21.10;51.40;;;;;;6096713;23;19991;-92
2023/06/15 14:26:11;;;;;;;;;;;21.10;51.40;;;;;;6097909;23;19909;-90
2023/06/15 14:28:37;;;;;;;;;;;21.10;51.30;;;;;;6074166;23;19913;-91
2023/06/15 14:31:05;;;;;;;;;;;21.10;51.20;;;;;;6098807;23;19905;-90
2023/06/15 14:33:31;;;;;;;;;;;21.10;51.20;;;;;;6099097;23;19963;-90
2023/06/15 14:35:57;;;;;;;;;;;21.10;51.30;;;;;;6098281;23;19983;-93
2023/06/15 14:38:23;;;;;;;;;;;21.10;52.00;;;;;;6099042;23;19961;-91
2023/06/15 14:40:49;;;;;;;;;;;21.10;51.40;;;;;;6075454;23;19897;-91
2023/06/15 14:43:16;;;;;;;;;;;21.10;51.30;;;;;;6099545;23;19936;-94
2023/06/15 14:45:46;;;;;;;;;;;21.10;51.10;;;;;;6075900;23;19991;-95
2023/06/15 14:48:12;;;;;;;;;;;21.10;51.10;;;;;;6075701;23;20007;-90
2023/06/15 14:50:57;;;;;;;;;;;21.00;50.80;;;;;;6075394;23;20698;-91
2023/06/15 14:53:29;;;;;;;;;;;21.00;50.90;;;;;;6097768;23;19916;-91
2023/06/15 14:55:58;;;;;;;;;;;21.10;50.60;;;;;;6075416;23;20032;-92
2023/06/15 14:58:24;;;;;;;;;;;21.00;50.30;;;;;;6074241;23;20342;-90
2023/06/15 15:00:50;;;;;;;;;;;21.00;50.20;;;;;;6073330;23;19909;-90
2023/06/15 15:03:16;;;;;;;;;;;21.00;50.10;;;;;;6073720;23;20278;-90
2023/06/15 15:05:42;;;;;;;;;;;21.00;49.90;;;;;;6073569;23;19955;-91
2023/06/15 15:08:08;;;;;;;;;;;21.00;50.10;;;;;;6097845;23;19909;-92
2023/06/15 15:10:34;;;;;;;;;;;21.00;50.10;;;;;;6098103;23;19916;-93
2023/06/15 15:13:04;;;;;;;;;;;21.00;49.90;;;;;;6073658;23;20706;-92
2023/06/15 15:15:30;;;;;;;;;;;21.00;49.80;;;;;;6097104;23;19908;-91
2023/06/15 15:17:56;;;;;;;;;;;21.00;49.90;;;;;;6097227;23;19909;-91
2023/06/15 15:20:21;;;;;;;;;;;21.00;49.90;;;;;;6096448;23;19986;-89
2023/06/15 15:22:47;;;;;;;;;;;21.00;49.80;;;;;;6074044;23;19916;-91
2023/06/15 15:25:13;;;;;;;;;;;21.00;50.20;;;;;;6074379;23;20318;-92
2023/06/15 15:27:39;;;;;;;;;;;21.10;50.20;;;;;;6074419;23;19909;-91
2023/06/15 15:30:11;;;;;;;;;;;21.10;50.40;;;;;;6097951;23;19909;-93
2023/06/15 15:32:37;;;;;;;;;;;21.10;50.50;;;;;;6098817;23;20337;-92
2023/06/15 15:35:03;;;;;;;;;;;21.10;50.50;;;;;;6073222;23;19979;-89
2023/06/15 15:37:29;;;;;;;;;;;21.10;50.30;;;;;;6096471;23;19905;-90